Time;durP1;ratioP1;P1;durP2;ratioP2;P2;SDS_P1;SDS_P2;PMS_P1;PMS_P2;Temp;Humidity;BMP_temperature;BMP_pressure;BME280_temperature;BME280_humidity;BME280_pressure;Samples;Min_cycle;Max_cycle;Signal;HPM_P1;HPM_P2
2021/01/01 00:01:19;;;;;;;23.08;13.38;;;;;;;;;;5020751;28;20037;-47
2021/01/01 00:03:45;;;;;;;26.63;14.43;;;;;;;;;;5015904;28;20033;-47
2021/01/01 00:06:11;;;;;;;26.83;14.70;;;;;;;;;;5026722;28;20042;-52
2021/01/01 00:08:38;;;;;;;22.98;14.43;;;;;;;;;;5025465;28;20057;-53
2021/01/01 00:11:04;;;;;;;25.70;14.05;;;;;;;;;;5022681;28;20029;-48
2021/01/01 00:13:29;;;;;;;25.05;14.73;;;;;;;;;;5026647;28;20045;-47
2021/01/01 00:15:55;;;;;;;26.75;16.67;;;;;;;;;;5027459;28;20044;-51
2021/01/01 00:18:21;;;;;;;62.78;32.13;;;;;;;;;;5023138;28;20033;-48
2021/01/01 00:20:47;;;;;;;35.92;21.45;;;;;;;;;;5026183;28;20111;-49
2021/01/01 00:23:13;;;;;;;43.47;23.63;;;;;;;;;;5025123;28;20600;-52
2021/01/01 00:25:39;;;;;;;48.35;24.17;;;;;;;;;;5027330;28;20615;-49
2021/01/01 00:28:05;;;;;;;40.20;22.02;;;;;;;;;;5027295;28;20083;-51
2021/01/01 00:30:31;;;;;;;41.95;23.20;;;;;;;;;;5019496;28;20034;-47
2021/01/01 00:32:57;;;;;;;39.85;22.73;;;;;;;;;;5026288;28;20382;-51
2021/01/01 00:35:23;;;;;;;41.33;21.88;;;;;;;;;;5031908;28;20032;-48
2021/01/01 00:37:49;;;;;;;52.08;28.58;;;;;;;;;;5022784;28;20088;-51
2021/01/01 00:40:15;;;;;;;46.15;27.45;;;;;;;;;;5022483;28;20046;-50
2021/01/01 00:42:41;;;;;;;58.88;31.27;;;;;;;;;;5025926;28;20037;-49
2021/01/01 00:45:07;;;;;;;57.70;31.83;;;;;;;;;;5025016;28;20026;-53
2021/01/01 00:47:33;;;;;;;77.85;39.85;;;;;;;;;;5023006;28;20049;-51
2021/01/01 00:49:59;;;;;;;73.90;41.08;;;;;;;;;;5025865;28;20045;-49
2021/01/01 00:52:25;;;;;;;71.22;39.63;;;;;;;;;;5021542;28;20116;-50
2021/01/01 00:54:51;;;;;;;75.72;39.85;;;;;;;;;;5016993;28;20579;-49
2021/01/01 00:57:17;;;;;;;95.60;47.78;;;;;;;;;;5025653;28;20092;-49
2021/01/01 00:59:43;;;;;;;74.38;41.47;;;;;;;;;;5025918;28;20037;-47
2021/01/01 01:02:09;;;;;;;72.53;40.83;;;;;;;;;;5013769;28;20058;-51
2021/01/01 01:04:35;;;;;;;70.13;37.67;;;;;;;;;;5019259;28;20080;-49
2021/01/01 01:07:01;;;;;;;68.68;37.25;;;;;;;;;;5026868;28;20381;-46
2021/01/01 01:09:27;;;;;;;74.30;39.80;;;;;;;;;;5027099;28;20032;-52
2021/01/01 01:11:54;;;;;;;68.72;36.38;;;;;;;;;;5026536;28;20519;-48
2021/01/01 01:14:20;;;;;;;68.53;38.40;;;;;;;;;;5026496;28;20151;-47
2021/01/01 01:16:46;;;;;;;55.30;28.83;;;;;;;;;;5027010;28;20026;-50
2021/01/01 01:19:12;;;;;;;60.25;33.55;;;;;;;;;;5025743;28;20555;-49
2021/01/01 01:21:38;;;;;;;63.10;32.95;;;;;;;;;;5024622;28;20040;-50
2021/01/01 01:24:04;;;;;;;66.40;34.10;;;;;;;;;;5026773;28;20033;-51
2021/01/01 01:26:30;;;;;;;59.22;31.38;;;;;;;;;;5024460;28;20079;-51
2021/01/01 01:28:56;;;;;;;46.88;26.10;;;;;;;;;;5023789;28;20030;-51
2021/01/01 01:31:22;;;;;;;65.82;34.05;;;;;;;;;;5024636;28;20025;-54
2021/01/01 01:33:48;;;;;;;89.45;43.88;;;;;;;;;;5025681;28;20759;-48
2021/01/01 01:36:14;;;;;;;88.95;48.55;;;;;;;;;;5023504;28;20050;-48
2021/01/01 01:38:40;;;;;;;71.28;38.47;;;;;;;;;;5024555;28;20124;-50
2021/01/01 01:41:06;;;;;;;62.30;34.70;;;;;;;;;;5025862;28;20038;-47
2021/01/01 01:43:32;;;;;;;61.30;33.03;;;;;;;;;;5024584;28;20400;-53
2021/01/01 01:45:58;;;;;;;51.95;26.85;;;;;;;;;;5026299;28;20068;-47
2021/01/01 01:48:29;;;;;;;53.17;28.88;;;;;;;;;;5025478;28;20033;-51
2021/01/01 01:50:55;;;;;;;58.00;29.13;;;;;;;;;;5026499;28;20029;-49
2021/01/01 01:53:22;;;;;;;58.90;28.88;;;;;;;;;;5027112;28;20021;-47
2021/01/01 01:55:49;;;;;;;55.15;29.05;;;;;;;;;;5029317;28;20029;-50
2021/01/01 01:58:15;;;;;;;52.20;26.58;;;;;;;;;;5026955;28;20029;-52
2021/01/01 02:03:16;;;;;;;44.35;24.75;;;;;;;;;;5029138;28;20037;-50
2021/01/01 02:05:42;;;;;;;42.33;22.77;;;;;;;;;;5029973;28;20140;-48
2021/01/01 02:08:08;;;;;;;43.20;23.30;;;;;;;;;;5028286;28;20064;-50
2021/01/01 02:10:35;;;;;;;37.30;22.33;;;;;;;;;;5027772;28;20025;-51
2021/01/01 02:13:01;;;;;;;43.72;24.20;;;;;;;;;;5028587;28;20040;-47
2021/01/01 02:15:28;;;;;;;42.63;22.45;;;;;;;;;;5026912;28;20045;-49
2021/01/01 02:17:55;;;;;;;43.63;22.90;;;;;;;;;;5026317;28;20060;-53
2021/01/01 02:20:21;;;;;;;39.80;21.77;;;;;;;;;;5020323;28;20076;-48
2021/01/01 02:22:47;;;;;;;48.72;25.35;;;;;;;;;;5025964;28;20820;-50
2021/01/01 02:25:13;;;;;;;46.58;24.38;;;;;;;;;;5029301;28;20037;-48
2021/01/01 02:27:40;;;;;;;41.15;22.95;;;;;;;;;;5029521;28;20140;-46
2021/01/01 02:30:06;;;;;;;40.85;21.30;;;;;;;;;;5029396;28;20247;-50
2021/01/01 02:32:32;;;;;;;37.58;22.13;;;;;;;;;;5029130;28;20025;-54
2021/01/01 02:34:59;;;;;;;43.10;22.75;;;;;;;;;;5029520;28;20086;-48
2021/01/01 02:37:25;;;;;;;37.92;20.42;;;;;;;;;;5020715;28;20095;-49
2021/01/01 02:39:51;;;;;;;36.00;21.23;;;;;;;;;;5022950;28;20033;-48
2021/01/01 02:42:17;;;;;;;38.83;21.33;;;;;;;;;;5032511;28;20102;-51
2021/01/01 02:44:43;;;;;;;38.30;20.85;;;;;;;;;;5041396;28;20550;-47
2021/01/01 02:47:09;;;;;;;34.85;20.35;;;;;;;;;;5028072;28;20051;-48
2021/01/01 02:49:35;;;;;;;33.95;20.58;;;;;;;;;;5028635;28;20037;-50
2021/01/01 02:52:02;;;;;;;33.78;19.50;;;;;;;;;;5029511;28;20072;-51
2021/01/01 02:54:28;;;;;;;35.53;20.88;;;;;;;;;;5028031;28;20025;-47
2021/01/01 02:56:54;;;;;;;33.50;19.60;;;;;;;;;;5018209;28;20041;-50
2021/01/01 02:59:20;;;;;;;35.10;21.30;;;;;;;;;;5029211;28;20029;-47
2021/01/01 03:01:46;;;;;;;37.78;20.25;;;;;;;;;;5028544;28;20740;-48
2021/01/01 03:04:12;;;;;;;34.25;19.30;;;;;;;;;;5027599;28;20798;-53
2021/01/01 03:06:38;;;;;;;35.22;19.90;;;;;;;;;;5022992;28;20021;-51
2021/01/01 03:09:05;;;;;;;34.92;19.27;;;;;;;;;;5028346;28;20136;-49
2021/01/01 03:11:31;;;;;;;42.97;20.15;;;;;;;;;;5029254;28;20040;-50
2021/01/01 03:13:57;;;;;;;38.25;20.55;;;;;;;;;;5028409;28;20029;-47
2021/01/01 03:16:23;;;;;;;35.00;19.98;;;;;;;;;;5012695;28;20040;-51
2021/01/01 03:18:49;;;;;;;35.17;19.50;;;;;;;;;;5023626;28;20036;-48
2021/01/01 03:21:17;;;;;;;33.90;19.58;;;;;;;;;;5028287;28;20033;-49
2021/01/01 03:23:43;;;;;;;34.53;19.23;;;;;;;;;;5028302;28;20052;-53
2021/01/01 03:26:09;;;;;;;35.38;19.92;;;;;;;;;;5025988;28;20030;-49
2021/01/01 03:28:35;;;;;;;35.78;19.30;;;;;;;;;;5018218;28;20033;-52
2021/01/01 03:31:01;;;;;;;33.78;18.52;;;;;;;;;;5015416;28;20022;-53
2021/01/01 03:33:27;;;;;;;37.55;19.00;;;;;;;;;;5016918;28;20021;-49
2021/01/01 03:35:53;;;;;;;33.25;19.20;;;;;;;;;;5029846;28;20033;-48
2021/01/01 03:38:19;;;;;;;34.15;19.35;;;;;;;;;;5027187;28;20130;-50
2021/01/01 03:40:49;;;;;;;35.65;18.65;;;;;;;;;;5026994;28;20037;-49
2021/01/01 03:43:15;;;;;;;31.65;18.25;;;;;;;;;;5028006;28;20036;-50
2021/01/01 03:45:41;;;;;;;33.58;19.17;;;;;;;;;;5027911;28;20040;-51
2021/01/01 03:48:07;;;;;;;32.65;18.88;;;;;;;;;;5018783;28;20038;-48
2021/01/01 03:50:34;;;;;;;29.50;18.08;;;;;;;;;;5023358;28;20054;-52
2021/01/01 03:52:59;;;;;;;34.50;18.20;;;;;;;;;;5017951;28;20041;-50
2021/01/01 03:55:26;;;;;;;34.00;18.52;;;;;;;;;;5020298;28;20025;-49
2021/01/01 03:57:52;;;;;;;31.40;18.52;;;;;;;;;;5027826;28;20045;-50
2021/01/01 04:00:18;;;;;;;33.53;18.33;;;;;;;;;;5027392;28;20030;-50
2021/01/01 04:02:44;;;;;;;34.20;19.65;;;;;;;;;;5028239;28;20469;-48
2021/01/01 04:05:10;;;;;;;36.00;19.00;;;;;;;;;;5027590;28;20025;-49
2021/01/01 04:07:36;;;;;;;37.10;20.92;;;;;;;;;;5027734;28;20108;-51
2021/01/01 04:10:03;;;;;;;37.40;19.42;;;;;;;;;;5026903;28;20027;-49
2021/01/01 04:12:29;;;;;;;34.08;18.40;;;;;;;;;;5027565;28;20034;-53
2021/01/01 04:14:55;;;;;;;38.83;20.52;;;;;;;;;;5027687;28;20029;-50
2021/01/01 04:17:21;;;;;;;34.95;20.63;;;;;;;;;;5027379;28;20037;-48
2021/01/01 04:19:47;;;;;;;42.63;21.70;;;;;;;;;;5027498;28;20449;-48
2021/01/01 04:22:13;;;;;;;38.83;20.27;;;;;;;;;;5025302;28;20025;-50
2021/01/01 04:24:39;;;;;;;38.25;21.88;;;;;;;;;;5015116;28;20026;-51
2021/01/01 04:27:05;;;;;;;40.33;21.45;;;;;;;;;;5027550;28;20036;-51
2021/01/01 04:29:31;;;;;;;36.05;20.40;;;;;;;;;;5027704;28;20031;-47
2021/01/01 04:31:57;;;;;;;35.28;19.67;;;;;;;;;;5026857;28;20504;-50
2021/01/01 04:34:23;;;;;;;37.55;20.65;;;;;;;;;;5039191;28;20025;-50
2021/01/01 04:36:49;;;;;;;38.08;20.60;;;;;;;;;;5047269;28;20025;-48
2021/01/01 04:39:14;;;;;;;39.40;21.08;;;;;;;;;;5030372;28;20029;-50
2021/01/01 04:41:41;;;;;;;38.83;21.10;;;;;;;;;;5026900;28;20053;-48
2021/01/01 04:44:08;;;;;;;38.22;20.63;;;;;;;;;;5027089;28;20041;-50
2021/01/01 04:46:34;;;;;;;36.17;20.08;;;;;;;;;;5026097;28;20030;-53
2021/01/01 04:49:01;;;;;;;41.45;21.83;;;;;;;;;;5011800;28;20375;-49
2021/01/01 04:51:27;;;;;;;39.10;21.05;;;;;;;;;;5007386;28;20496;-52
2021/01/01 04:53:57;;;;;;;37.67;20.23;;;;;;;;;;5021280;28;20380;-54
2021/01/01 04:56:24;;;;;;;42.40;20.50;;;;;;;;;;5021966;28;20033;-52
2021/01/01 04:58:50;;;;;;;38.35;21.63;;;;;;;;;;5027561;28;20412;-50
2021/01/01 05:01:16;;;;;;;38.10;21.38;;;;;;;;;;5026221;28;20072;-49
2021/01/01 05:03:41;;;;;;;35.65;20.90;;;;;;;;;;5026525;28;20033;-47
2021/01/01 05:06:07;;;;;;;39.60;20.63;;;;;;;;;;5026535;28;20104;-48
2021/01/01 05:08:33;;;;;;;39.70;21.38;;;;;;;;;;5026691;28;20026;-51
2021/01/01 05:11:06;;;;;;;44.30;22.65;;;;;;;;;;5027086;28;20159;-47
2021/01/01 05:13:33;;;;;;;39.45;20.92;;;;;;;;;;5027235;28;20057;-51
2021/01/01 05:16:00;;;;;;;36.10;20.77;;;;;;;;;;5026753;28;20037;-47
2021/01/01 05:18:27;;;;;;;34.50;20.83;;;;;;;;;;5026881;28;20037;-53
2021/01/01 05:20:57;;;;;;;35.60;20.45;;;;;;;;;;5027317;28;20123;-48
2021/01/01 05:23:24;;;;;;;43.03;22.23;;;;;;;;;;5014992;28;20033;-52
2021/01/01 05:26:09;;;;;;;45.75;21.83;;;;;;;;;;5027033;28;20033;-50
2021/01/01 05:28:51;;;;;;;37.83;20.15;;;;;;;;;;5031003;28;20029;-52
2021/01/01 05:31:27;;;;;;;35.95;20.35;;;;;;;;;;5030750;28;20018;-50
2021/01/01 05:33:59;;;;;;;34.95;20.23;;;;;;;;;;5030531;28;20029;-52
2021/01/01 05:36:41;;;;;;;50.35;27.20;;;;;;;;;;5030356;28;20449;-52
2021/01/01 05:39:09;;;;;;;37.45;21.25;;;;;;;;;;5030089;28;20033;-48
2021/01/01 05:41:39;;;;;;;39.20;19.45;;;;;;;;;;5030295;28;20448;-51
2021/01/01 05:44:09;;;;;;;33.13;19.15;;;;;;;;;;5030733;28;20029;-49
2021/01/01 05:46:35;;;;;;;37.03;20.10;;;;;;;;;;5030552;28;20559;-50
2021/01/01 05:49:02;;;;;;;34.33;17.83;;;;;;;;;;5030036;28;20022;-48
2021/01/01 05:51:28;;;;;;;38.05;18.58;;;;;;;;;;5030480;28;20028;-47
2021/01/01 05:54:10;;;;;;;38.00;19.90;;;;;;;;;;5014426;28;20014;-48
2021/01/01 05:56:38;;;;;;;38.07;20.63;;;;;;;;;;5022909;28;20068;-50
2021/01/01 05:59:04;;;;;;;39.00;20.98;;;;;;;;;;5030691;28;20044;-51
2021/01/01 06:01:33;;;;;;;35.20;19.98;;;;;;;;;;5029680;28;20600;-52
2021/01/01 06:03:59;;;;;;;53.67;24.75;;;;;;;;;;5029305;28;20079;-52
2021/01/01 06:06:27;;;;;;;43.92;22.00;;;;;;;;;;5029959;28;20029;-48
2021/01/01 06:08:53;;;;;;;37.53;20.90;;;;;;;;;;5029605;28;20110;-51
2021/01/01 06:11:21;;;;;;;37.00;21.50;;;;;;;;;;5029561;28;20596;-49
2021/01/01 06:13:50;;;;;;;39.30;21.95;;;;;;;;;;5030116;28;20018;-52
2021/01/01 06:16:21;;;;;;;39.92;21.25;;;;;;;;;;5029952;28;20040;-48
2021/01/01 06:18:47;;;;;;;40.30;22.65;;;;;;;;;;5030032;28;20500;-50
2021/01/01 06:21:30;;;;;;;43.17;22.90;;;;;;;;;;5028582;28;20088;-48
2021/01/01 06:23:57;;;;;;;44.30;22.35;;;;;;;;;;5013135;28;20417;-50
2021/01/01 06:26:23;;;;;;;38.28;21.38;;;;;;;;;;5028412;28;20720;-46
2021/01/01 06:28:49;;;;;;;34.72;19.92;;;;;;;;;;5028465;28;20029;-49
2021/01/01 06:31:15;;;;;;;37.40;21.58;;;;;;;;;;5029578;28;20029;-49
2021/01/01 06:33:44;;;;;;;46.50;21.15;;;;;;;;;;5035254;28;20482;-49
2021/01/01 06:36:30;;;;;;;35.72;20.08;;;;;;;;;;5049695;28;20028;-54
2021/01/01 06:38:56;;;;;;;34.95;19.90;;;;;;;;;;5032509;28;20083;-47
2021/01/01 06:41:41;;;;;;;32.83;19.95;;;;;;;;;;5028977;28;20045;-49
2021/01/01 06:44:07;;;;;;;37.08;19.98;;;;;;;;;;5029646;28;20035;-47
2021/01/01 06:46:37;;;;;;;36.80;20.70;;;;;;;;;;5029213;28;20033;-49
2021/01/01 06:49:04;;;;;;;39.70;21.33;;;;;;;;;;5028194;28;20030;-50
2021/01/01 06:51:30;;;;;;;37.85;20.65;;;;;;;;;;5029651;28;20031;-47
2021/01/01 06:54:11;;;;;;;40.53;20.52;;;;;;;;;;5015960;28;20021;-49
2021/01/01 06:56:40;;;;;;;43.88;20.08;;;;;;;;;;5029044;28;20037;-51
2021/01/01 06:59:07;;;;;;;35.10;19.60;;;;;;;;;;5029131;28;20034;-46
2021/01/01 07:01:39;;;;;;;34.75;20.02;;;;;;;;;;5029056;28;20030;-51
2021/01/01 07:04:05;;;;;;;36.28;20.00;;;;;;;;;;5030328;28;20033;-53
2021/01/01 07:06:31;;;;;;;34.10;19.17;;;;;;;;;;5029950;28;20051;-56
2021/01/01 07:08:57;;;;;;;36.05;18.45;;;;;;;;;;5028594;28;20031;-51
2021/01/01 07:11:23;;;;;;;37.75;20.63;;;;;;;;;;5029705;28;20041;-52
2021/01/01 07:13:49;;;;;;;39.05;19.85;;;;;;;;;;5030052;28;20355;-53
2021/01/01 07:16:17;;;;;;;33.60;19.05;;;;;;;;;;5029237;28;20044;-55
2021/01/01 07:18:43;;;;;;;32.28;18.73;;;;;;;;;;5028811;28;20067;-53
2021/01/01 07:21:16;;;;;;;35.75;20.35;;;;;;;;;;5028723;28;20461;-51
2021/01/01 07:23:45;;;;;;;37.90;19.85;;;;;;;;;;5014869;28;20138;-49
2021/01/01 07:26:11;;;;;;;36.10;19.10;;;;;;;;;;5009248;28;20366;-50
2021/01/01 07:28:41;;;;;;;36.63;20.00;;;;;;;;;;5009314;28;20101;-54
2021/01/01 07:31:07;;;;;;;35.13;18.63;;;;;;;;;;5021840;28;20034;-56
2021/01/01 07:33:33;;;;;;;34.70;19.33;;;;;;;;;;5018777;28;20029;-56
2021/01/01 07:36:01;;;;;;;33.58;18.83;;;;;;;;;;5029717;28;20033;-53
2021/01/01 07:38:28;;;;;;;38.08;21.02;;;;;;;;;;5028720;28;20376;-54
2021/01/01 07:40:54;;;;;;;35.85;19.50;;;;;;;;;;5028256;28;20053;-53
2021/01/01 07:43:20;;;;;;;35.13;19.05;;;;;;;;;;5028866;28;20033;-54
2021/01/01 07:45:46;;;;;;;36.53;19.52;;;;;;;;;;5029050;28;20045;-55
2021/01/01 07:48:12;;;;;;;39.28;19.75;;;;;;;;;;5028598;28;20365;-51
2021/01/01 07:50:39;;;;;;;34.88;18.65;;;;;;;;;;5027181;28;20036;-56
2021/01/01 07:53:09;;;;;;;37.25;19.90;;;;;;;;;;5018896;28;20092;-52
2021/01/01 07:55:35;;;;;;;35.03;20.15;;;;;;;;;;5009011;28;20378;-55
2021/01/01 07:58:04;;;;;;;35.97;19.73;;;;;;;;;;5008822;28;20034;-54
2021/01/01 08:00:32;;;;;;;43.10;22.80;;;;;;;;;;5026896;28;20036;-52
2021/01/01 08:02:59;;;;;;;39.33;21.38;;;;;;;;;;5028577;28;20381;-50
2021/01/01 08:05:26;;;;;;;38.38;20.52;;;;;;;;;;5028416;28;20036;-52
2021/01/01 08:07:52;;;;;;;38.35;21.23;;;;;;;;;;5028167;28;20033;-55
2021/01/01 08:10:31;;;;;;;40.95;21.33;;;;;;;;;;5014271;28;20026;-52
2021/01/01 08:12:57;;;;;;;43.17;22.40;;;;;;;;;;5025679;28;20036;-50
2021/01/01 08:15:27;;;;;;;33.42;20.30;;;;;;;;;;5028259;28;20047;-54
2021/01/01 08:17:53;;;;;;;36.05;20.98;;;;;;;;;;5027555;28;20184;-54
2021/01/01 08:20:19;;;;;;;33.95;19.83;;;;;;;;;;5027939;28;20045;-53
2021/01/01 08:22:46;;;;;;;38.20;20.23;;;;;;;;;;5021530;28;20025;-52
2021/01/01 08:25:12;;;;;;;43.53;21.48;;;;;;;;;;5019255;28;20028;-51
2021/01/01 08:27:39;;;;;;;35.70;20.48;;;;;;;;;;5027552;28;20025;-55
2021/01/01 08:30:06;;;;;;;34.50;20.00;;;;;;;;;;5028446;28;20026;-50
2021/01/01 08:32:33;;;;;;;38.70;20.45;;;;;;;;;;5027722;28;20559;-51
2021/01/01 08:34:59;;;;;;;36.00;19.42;;;;;;;;;;5027465;28;20033;-56
2021/01/01 08:37:27;;;;;;;34.05;18.90;;;;;;;;;;5026085;28;20036;-51
2021/01/01 08:40:06;;;;;;;33.42;18.85;;;;;;;;;;5027403;28;20120;-51
2021/01/01 08:42:33;;;;;;;37.15;19.70;;;;;;;;;;5027551;28;20033;-53
2021/01/01 08:44:59;;;;;;;38.30;19.75;;;;;;;;;;5027665;28;20033;-55
2021/01/01 08:47:41;;;;;;;38.22;20.10;;;;;;;;;;5026879;28;20030;-55
2021/01/01 08:50:20;;;;;;;36.72;19.00;;;;;;;;;;5027025;28;20476;-51
2021/01/01 08:52:46;;;;;;;34.63;19.38;;;;;;;;;;5021587;28;20496;-52
2021/01/01 08:55:13;;;;;;;37.42;20.30;;;;;;;;;;5026332;28;20026;-54
2021/01/01 08:57:39;;;;;;;36.60;18.95;;;;;;;;;;5027555;28;20029;-53
2021/01/01 09:00:06;;;;;;;36.60;20.75;;;;;;;;;;5027890;28;20041;-52
2021/01/01 09:02:33;;;;;;;36.97;20.08;;;;;;;;;;5029187;28;20032;-54
2021/01/01 09:04:59;;;;;;;33.67;19.45;;;;;;;;;;5030150;28;20116;-53
2021/01/01 09:07:26;;;;;;;35.55;20.80;;;;;;;;;;5029916;28;20080;-53
2021/01/01 09:09:52;;;;;;;40.42;20.90;;;;;;;;;;5027414;28;20036;-55
2021/01/01 09:12:21;;;;;;;36.92;20.75;;;;;;;;;;5028253;28;20718;-50
2021/01/01 09:14:49;;;;;;;36.63;21.00;;;;;;;;;;5024682;28;20061;-56
2021/01/01 09:17:15;;;;;;;37.88;19.92;;;;;;;;;;5030840;28;20029;-54
2021/01/01 09:19:41;;;;;;;38.20;19.08;;;;;;;;;;5029665;28;20120;-56
2021/01/01 09:22:14;;;;;;;38.40;20.42;;;;;;;;;;5029099;28;20033;-55
2021/01/01 09:24:40;;;;;;;35.58;19.83;;;;;;;;;;5030730;28;20397;-54
2021/01/01 09:27:07;;;;;;;35.80;19.90;;;;;;;;;;5030100;28;20033;-56
2021/01/01 09:29:33;;;;;;;37.28;19.48;;;;;;;;;;5027424;28;20152;-50
2021/01/01 09:31:59;;;;;;;38.33;20.60;;;;;;;;;;5017537;28;20119;-49
2021/01/01 09:34:25;;;;;;;35.33;19.77;;;;;;;;;;5028922;28;20026;-52
2021/01/01 09:36:51;;;;;;;35.63;20.15;;;;;;;;;;5031348;28;20071;-53
2021/01/01 09:39:17;;;;;;;36.13;19.83;;;;;;;;;;5027655;28;20067;-51
2021/01/01 09:41:49;;;;;;;35.70;20.08;;;;;;;;;;5030368;28;20059;-53
2021/01/01 09:44:15;;;;;;;39.78;21.65;;;;;;;;;;5028142;28;20048;-52
2021/01/01 09:46:42;;;;;;;36.67;20.65;;;;;;;;;;5030851;28;20029;-51
2021/01/01 09:49:08;;;;;;;34.97;20.00;;;;;;;;;;5029276;28;20064;-49
2021/01/01 09:51:34;;;;;;;32.60;19.65;;;;;;;;;;5014606;28;20038;-55
2021/01/01 09:53:59;;;;;;;37.78;19.85;;;;;;;;;;5013030;28;20025;-55
2021/01/01 09:56:32;;;;;;;36.13;19.23;;;;;;;;;;5016871;28;20065;-49
2021/01/01 09:58:58;;;;;;;36.27;21.70;;;;;;;;;;5025468;28;20022;-54
2021/01/01 10:01:24;;;;;;;37.22;19.48;;;;;;;;;;5021349;28;20276;-50
2021/01/01 10:03:50;;;;;;;40.40;19.42;;;;;;;;;;5021084;28;20040;-53
2021/01/01 10:06:16;;;;;;;33.17;18.98;;;;;;;;;;5026041;28;20053;-49
2021/01/01 10:08:42;;;;;;;36.35;19.88;;;;;;;;;;5024646;28;20033;-49
2021/01/01 10:11:12;;;;;;;37.95;20.15;;;;;;;;;;5029192;28;20083;-49
2021/01/01 10:13:38;;;;;;;39.85;19.88;;;;;;;;;;5027464;28;20484;-53
2021/01/01 10:16:05;;;;;;;33.83;18.65;;;;;;;;;;5028307;28;20025;-52
2021/01/01 10:18:31;;;;;;;41.80;21.15;;;;;;;;;;5027135;28;20029;-54
2021/01/01 10:20:58;;;;;;;34.70;19.40;;;;;;;;;;5028371;28;20040;-53
2021/01/01 10:23:24;;;;;;;33.83;19.23;;;;;;;;;;5029329;28;20022;-51
2021/01/01 10:25:50;;;;;;;33.70;19.38;;;;;;;;;;5026761;28;20091;-54
2021/01/01 10:28:17;;;;;;;35.63;19.05;;;;;;;;;;5024100;28;20025;-53
2021/01/01 10:30:43;;;;;;;37.05;19.67;;;;;;;;;;5030035;28;20042;-55
2021/01/01 10:33:09;;;;;;;38.83;19.10;;;;;;;;;;5030823;28;20033;-55
2021/01/01 10:35:35;;;;;;;29.80;18.00;;;;;;;;;;5041506;28;20018;-52
2021/01/01 10:38:01;;;;;;;34.78;19.65;;;;;;;;;;5029708;28;20028;-50
2021/01/01 10:40:27;;;;;;;34.65;19.02;;;;;;;;;;5028903;28;20040;-53
2021/01/01 10:42:53;;;;;;;37.67;19.38;;;;;;;;;;5013854;28;20018;-54
2021/01/01 10:45:19;;;;;;;31.35;18.20;;;;;;;;;;5022040;28;20026;-53
2021/01/01 10:47:45;;;;;;;37.13;19.67;;;;;;;;;;5028767;28;20029;-51
2021/01/01 10:50:11;;;;;;;34.97;18.83;;;;;;;;;;5028927;28;20021;-55
2021/01/01 10:52:37;;;;;;;36.53;19.98;;;;;;;;;;5029588;28;20113;-55
2021/01/01 10:55:03;;;;;;;36.13;20.30;;;;;;;;;;5027301;28;20388;-53
2021/01/01 10:57:29;;;;;;;35.95;20.27;;;;;;;;;;5023929;28;20087;-53
2021/01/01 10:59:55;;;;;;;41.95;20.70;;;;;;;;;;5026877;28;20025;-56
2021/01/01 11:02:21;;;;;;;32.22;18.23;;;;;;;;;;5026158;28;20037;-52
2021/01/01 11:04:47;;;;;;;36.72;19.58;;;;;;;;;;5020856;28;20473;-50
2021/01/01 11:07:13;;;;;;;36.35;20.58;;;;;;;;;;5028213;28;20488;-53
2021/01/01 11:09:39;;;;;;;39.78;19.85;;;;;;;;;;5029448;28;20014;-53
2021/01/01 11:12:06;;;;;;;34.28;19.10;;;;;;;;;;5013745;28;20026;-56
2021/01/01 12:25:31;;;;;;;33.15;17.67;;;;;;;;;;5028249;28;20091;-50
2021/01/01 12:27:59;;;;;;;31.00;17.08;;;;;;;;;;5028294;28;20836;-50
2021/01/01 12:30:26;;;;;;;30.50;18.05;;;;;;;;;;5028157;28;20036;-50
2021/01/01 12:32:53;;;;;;;35.17;17.95;;;;;;;;;;5024761;28;20061;-54
2021/01/01 12:35:19;;;;;;;32.88;18.50;;;;;;;;;;5038095;28;20029;-50
2021/01/01 12:37:48;;;;;;;31.38;17.40;;;;;;;;;;5021604;28;20493;-53
2021/01/01 12:40:15;;;;;;;31.40;17.67;;;;;;;;;;5027089;28;20109;-56
2021/01/01 12:42:41;;;;;;;29.33;16.70;;;;;;;;;;5027906;28;20111;-50
2021/01/01 12:45:07;;;;;;;30.67;17.30;;;;;;;;;;5028051;28;20038;-49
2021/01/01 12:47:33;;;;;;;32.78;16.52;;;;;;;;;;5027844;28;20021;-52
2021/01/01 12:49:59;;;;;;;29.98;16.48;;;;;;;;;;5026332;28;20031;-50
2021/01/01 12:52:25;;;;;;;27.80;15.73;;;;;;;;;;5026946;28;20104;-51
2021/01/01 12:54:51;;;;;;;29.77;16.30;;;;;;;;;;5025740;28;20045;-55
2021/01/01 12:57:17;;;;;;;28.40;15.70;;;;;;;;;;5008258;28;20026;-51
2021/01/01 12:59:43;;;;;;;29.30;16.27;;;;;;;;;;5026282;28;20025;-55
2021/01/01 13:02:09;;;;;;;29.88;15.98;;;;;;;;;;5027065;28;20120;-51
2021/01/01 13:04:35;;;;;;;30.10;15.60;;;;;;;;;;5027483;28;20029;-53
2021/01/01 13:07:01;;;;;;;26.63;15.98;;;;;;;;;;5027551;28;20033;-53
2021/01/01 13:09:27;;;;;;;29.67;17.25;;;;;;;;;;5020747;28;20022;-53
2021/01/01 13:11:53;;;;;;;26.30;15.43;;;;;;;;;;5026113;28;20032;-54
2021/01/01 13:14:19;;;;;;;33.90;16.80;;;;;;;;;;5027077;28;20044;-56
2021/01/01 13:16:46;;;;;;;29.73;15.30;;;;;;;;;;5027330;28;20069;-49
2021/01/01 13:19:12;;;;;;;25.13;15.27;;;;;;;;;;5027542;28;20424;-54
2021/01/01 13:21:39;;;;;;;26.05;15.57;;;;;;;;;;5027904;28;20060;-53
2021/01/01 13:24:06;;;;;;;30.15;16.92;;;;;;;;;;5025464;28;20053;-53
2021/01/01 13:26:32;;;;;;;27.75;15.88;;;;;;;;;;5024353;28;20030;-49
2021/01/01 13:28:59;;;;;;;27.83;15.63;;;;;;;;;;5027954;28;20018;-49
2021/01/01 13:31:35;;;;;;;27.75;15.73;;;;;;;;;;5026526;28;20022;-49
2021/01/01 13:34:01;;;;;;;27.00;15.65;;;;;;;;;;5035559;28;20025;-54
2021/01/01 13:36:27;;;;;;;24.90;14.32;;;;;;;;;;5047389;28;20036;-53
2021/01/01 13:38:53;;;;;;;26.35;15.25;;;;;;;;;;5031905;28;20032;-54
2021/01/01 13:41:19;;;;;;;26.70;15.18;;;;;;;;;;5027370;28;20045;-53
2021/01/01 13:43:45;;;;;;;26.63;14.82;;;;;;;;;;5025728;28;20097;-53
2021/01/01 13:46:19;;;;;;;26.65;13.77;;;;;;;;;;5026399;28;20044;-51
2021/01/01 13:48:45;;;;;;;27.00;14.68;;;;;;;;;;5028035;28;20417;-53
2021/01/01 13:51:11;;;;;;;26.13;13.52;;;;;;;;;;5030937;28;20076;-52
2021/01/01 13:53:37;;;;;;;25.90;14.13;;;;;;;;;;5030250;28;20021;-53
2021/01/01 13:56:03;;;;;;;27.65;15.05;;;;;;;;;;5024208;28;20041;-53
2021/01/01 13:58:29;;;;;;;22.63;14.98;;;;;;;;;;5030575;28;20028;-52
2021/01/01 14:00:55;;;;;;;24.02;13.80;;;;;;;;;;5026200;28;20022;-55
2021/01/01 14:03:21;;;;;;;24.33;13.68;;;;;;;;;;5013611;28;20044;-56
2021/01/01 14:05:50;;;;;;;23.60;13.82;;;;;;;;;;5030223;28;20463;-54
2021/01/01 14:08:16;;;;;;;25.48;14.65;;;;;;;;;;5036363;28;20866;-55
2021/01/01 14:10:43;;;;;;;26.17;14.18;;;;;;;;;;5029489;28;20388;-54
2021/01/01 14:13:09;;;;;;;21.48;13.10;;;;;;;;;;5028801;28;20039;-53
2021/01/01 14:15:35;;;;;;;22.00;13.50;;;;;;;;;;5027340;28;20037;-56
2021/01/01 14:18:01;;;;;;;25.50;13.73;;;;;;;;;;5028700;28;20037;-55
2021/01/01 14:20:27;;;;;;;24.77;13.77;;;;;;;;;;5016153;28;20075;-50
2021/01/01 14:22:53;;;;;;;24.98;14.23;;;;;;;;;;5030393;28;20060;-52
2021/01/01 14:25:19;;;;;;;23.55;13.18;;;;;;;;;;5022725;28;20017;-53
2021/01/01 14:27:45;;;;;;;24.20;13.75;;;;;;;;;;5028678;28;20041;-54
2021/01/01 14:30:11;;;;;;;26.98;13.68;;;;;;;;;;5024514;28;20044;-53
2021/01/01 14:32:38;;;;;;;23.25;13.05;;;;;;;;;;5010295;28;20456;-52
2021/01/01 14:35:06;;;;;;;24.35;13.07;;;;;;;;;;5031425;28;20061;-52
2021/01/01 14:37:32;;;;;;;22.73;13.27;;;;;;;;;;5029122;28;20049;-55
2021/01/01 14:39:58;;;;;;;27.10;14.63;;;;;;;;;;5025981;28;20033;-53
2021/01/01 14:42:24;;;;;;;23.15;13.82;;;;;;;;;;5014390;28;20480;-53
2021/01/01 14:44:50;;;;;;;27.80;13.82;;;;;;;;;;5028062;28;20703;-54
2021/01/01 14:47:16;;;;;;;30.98;14.68;;;;;;;;;;5017196;28;20033;-56
2021/01/01 14:49:42;;;;;;;26.70;15.02;;;;;;;;;;5028681;28;20107;-51
2021/01/01 14:52:08;;;;;;;24.67;14.50;;;;;;;;;;5020726;28;20034;-53
2021/01/01 14:54:34;;;;;;;26.60;14.52;;;;;;;;;;5026067;28;20022;-49
2021/01/01 14:57:01;;;;;;;26.38;14.98;;;;;;;;;;5028877;28;20026;-55
2021/01/01 14:59:27;;;;;;;25.55;14.52;;;;;;;;;;5026250;28;20034;-53
2021/01/01 15:01:52;;;;;;;25.00;15.38;;;;;;;;;;5028665;28;20026;-55
2021/01/01 15:04:18;;;;;;;24.88;14.65;;;;;;;;;;5027982;28;20021;-53
2021/01/01 15:06:44;;;;;;;29.33;15.73;;;;;;;;;;5027141;28;20389;-49
2021/01/01 15:09:10;;;;;;;33.80;16.27;;;;;;;;;;5025980;28;20022;-52
2021/01/01 15:11:36;;;;;;;24.50;15.27;;;;;;;;;;5025968;28;20409;-55
2021/01/01 15:14:02;;;;;;;26.65;15.30;;;;;;;;;;5019863;28;20588;-50
2021/01/01 15:16:28;;;;;;;26.00;15.25;;;;;;;;;;5024754;28;20038;-54
2021/01/01 15:18:54;;;;;;;26.20;15.02;;;;;;;;;;5025202;28;20029;-53
2021/01/01 15:21:21;;;;;;;25.33;15.07;;;;;;;;;;5019170;28;20033;-51
2021/01/01 15:23:46;;;;;;;25.92;15.52;;;;;;;;;;5020642;28;20473;-52
2021/01/01 15:26:16;;;;;;;27.90;15.05;;;;;;;;;;5023166;28;20029;-54
2021/01/01 15:28:42;;;;;;;27.02;14.98;;;;;;;;;;5027936;28;20037;-50